CSB weather

Caransebeş Airport
Caransebeş, Caras-Severin, Romania

Public forecast

Using degrees Celsius for public forecast. Weather courtesy of forecast.io.

METAR (pilot weather report)

Closest report is Vršac International Airport, 43.1 nm (79.8 km) WSW. Retrieved 2019/06/15 22:30 UTC (0 seconds ago):

LYVR 152230Z 12012KT CAVOK 26/16 Q1013 NOSIG

TAF (pilot weather forecast)

Closest forecast is Vršac International Airport, 43.1 nm (79.8 km) WSW. Retrieved 2019/06/15 18:00 UTC (4 hours ago):

TAF LYVR 151700Z 1518/1618 12012KT CAVOK TX33/1613Z TN20/1603Z PROB30 TEMPO 1613/1618 5000 TSRA SCT033CB SCT040